Time;durP1;ratioP1;P1;durP2;ratioP2;P2;SDS_P1;SDS_P2;PMS_P1;PMS_P2;Temp;Humidity;BMP_temperature;BMP_pressure;BME280_temperature;BME280_humidity;BME280_pressure;Samples;Min_cycle;Max_cycle;Signal;HPM_P1;HPM_P2
2022/12/19 00:01:20;;;;;;;19.92;11.85;;;;;;;2.06;72.83;98203.00;5134645;27;20070;-64
2022/12/19 00:03:50;;;;;;;19.17;11.07;;;;;;;2.04;72.26;98204.69;5134614;27;20123;-63
2022/12/19 00:06:19;;;;;;;18.38;11.07;;;;;;;1.96;71.73;98207.94;5134514;27;20120;-65
2022/12/19 00:08:47;;;;;;;18.95;10.73;;;;;;;1.97;73.66;98201.06;5134590;27;20178;-64
2022/12/19 00:11:16;;;;;;;16.48;10.48;;;;;;;2.01;73.20;98211.50;5134434;27;20086;-64
2022/12/19 00:13:43;;;;;;;17.30;10.52;;;;;;;2.00;72.61;98204.59;5134810;27;20055;-64
2022/12/19 00:16:14;;;;;;;21.48;11.27;;;;;;;1.99;72.00;98213.16;5134495;27;20051;-63
2022/12/19 00:18:42;;;;;;;17.60;10.45;;;;;;;1.99;72.30;98213.16;5134415;27;20074;-63
2022/12/19 00:21:12;;;;;;;19.25;11.02;;;;;;;2.03;72.86;98216.72;5134567;27;20473;-62
2022/12/19 00:23:40;;;;;;;18.15;10.88;;;;;;;2.03;72.36;98221.88;5134746;27;20136;-64
2022/12/19 00:26:09;;;;;;;20.92;12.13;;;;;;;2.02;72.90;98222.72;5133794;27;20078;-62
2022/12/19 00:28:36;;;;;;;16.75;11.40;;;;;;;2.10;73.56;98220.28;5134258;27;20051;-61
2022/12/19 00:31:05;;;;;;;21.27;12.50;;;;;;;2.07;73.37;98218.50;5134261;27;20496;-61
2022/12/19 00:33:33;;;;;;;18.00;10.90;;;;;;;2.13;73.88;98230.69;5134177;27;20148;-62
2022/12/19 00:36:02;;;;;;;17.42;11.70;;;;;;;2.17;73.53;98227.38;5134125;27;20047;-64
2022/12/19 00:38:30;;;;;;;21.98;12.13;;;;;;;2.05;73.50;98233.13;5134242;27;20134;-64
2022/12/19 00:41:07;;;;;;;19.08;11.02;;;;;;;2.10;74.44;98228.03;5133965;27;20538;-63
2022/12/19 00:43:34;;;;;;;18.85;11.88;;;;;;;2.13;73.97;98226.41;5133906;27;20055;-62
2022/12/19 00:46:03;;;;;;;22.33;12.23;;;;;;;2.07;73.41;98234.00;5134000;27;20088;-62
2022/12/19 00:48:30;;;;;;;20.27;11.48;;;;;;;2.16;74.49;98240.25;5134253;28;20057;-64
2022/12/19 00:51:01;;;;;;;17.90;11.50;;;;;;;2.21;74.87;98241.19;5134029;28;20451;-63
2022/12/19 00:53:29;;;;;;;18.92;11.70;;;;;;;2.19;73.59;98237.69;5133898;28;20475;-61
2022/12/19 00:55:56;;;;;;;19.17;11.32;;;;;;;2.20;73.68;98239.47;5134128;28;20118;-62
2022/12/19 00:58:23;;;;;;;19.48;11.30;;;;;;;2.19;73.92;98235.13;5134174;28;20050;-64
2022/12/19 01:00:51;;;;;;;19.73;10.82;;;;;;;2.12;72.52;98240.16;5133846;28;20407;-64
2022/12/19 01:03:18;;;;;;;17.02;10.02;;;;;;;2.08;71.33;98234.88;5133887;28;20495;-64
2022/12/19 01:05:45;;;;;;;18.25;10.38;;;;;;;2.02;70.81;98243.38;5133827;28;20096;-64
2022/12/19 01:08:13;;;;;;;18.58;12.23;;;;;;;1.99;70.57;98243.28;5134041;28;20477;-63
2022/12/19 01:10:46;;;;;;;18.88;10.10;;;;;;;1.91;70.43;98235.38;5133736;28;20050;-64
2022/12/19 01:13:12;;;;;;;19.42;11.13;;;;;;;1.89;69.18;98229.28;5133862;28;20097;-63
2022/12/19 01:15:40;;;;;;;20.13;10.60;;;;;;;1.85;68.96;98228.34;5133796;28;20443;-62
2022/12/19 01:18:09;;;;;;;16.88;9.90;;;;;;;1.79;67.14;98233.38;5133770;28;20051;-60
2022/12/19 01:20:38;;;;;;;20.38;11.80;;;;;;;1.75;67.69;98237.56;5133562;28;20091;-62
2022/12/19 01:23:05;;;;;;;18.45;10.02;;;;;;;1.66;67.72;98232.19;5133596;28;20096;-63
2022/12/19 01:25:37;;;;;;;20.50;11.85;;;;;;;1.63;67.35;98229.53;5133708;28;20561;-62
2022/12/19 01:28:06;;;;;;;21.63;11.55;;;;;;;1.54;67.68;98231.88;5133794;28;20097;-60
2022/12/19 01:30:34;;;;;;;17.20;10.68;;;;;;;1.49;68.64;98235.22;5133730;28;20082;-64
2022/12/19 01:33:01;;;;;;;22.80;10.75;;;;;;;1.44;68.38;98234.22;5133519;28;20133;-61
2022/12/19 01:35:29;;;;;;;23.67;11.65;;;;;;;1.39;68.76;98233.25;5133644;28;20043;-64
2022/12/19 01:37:56;;;;;;;21.05;11.75;;;;;;;1.40;69.05;98227.25;5136081;27;20055;-60
2022/12/19 01:40:24;;;;;;;21.42;11.75;;;;;;;1.42;69.83;98225.59;5137388;27;20047;-63
2022/12/19 01:42:52;;;;;;;23.17;12.25;;;;;;;1.34;69.21;98229.66;5137097;27;20047;-63
2022/12/19 01:45:25;;;;;;;20.45;10.80;;;;;;;1.28;68.69;98222.63;5137412;27;20126;-60
2022/12/19 01:47:56;;;;;;;24.98;11.85;;;;;;;1.21;69.03;98228.47;5137250;27;20044;-61
2022/12/19 01:50:28;;;;;;;20.40;11.60;;;;;;;1.22;69.35;98238.84;5137168;27;20047;-61
2022/12/19 01:52:58;;;;;;;21.13;12.35;;;;;;;1.26;69.93;98234.59;5137208;27;20126;-60
2022/12/19 01:55:26;;;;;;;19.60;10.77;;;;;;;1.28;69.83;98247.53;5137368;27;20057;-62
2022/12/19 01:57:56;;;;;;;19.25;11.82;;;;;;;1.25;68.99;98249.22;5137087;27;20047;-60
2022/12/19 02:00:23;;;;;;;20.92;12.23;;;;;;;1.22;69.53;98253.41;5137049;27;20414;-62
2022/12/19 02:02:54;;;;;;;21.23;13.00;;;;;;;1.22;69.55;98253.41;5137060;27;20116;-62
2022/12/19 02:05:22;;;;;;;20.40;11.85;;;;;;;1.17;69.81;98252.44;5137264;27;20046;-60
2022/12/19 02:07:50;;;;;;;23.17;13.27;;;;;;;1.24;70.79;98246.59;5136966;27;20488;-60
2022/12/19 02:10:17;;;;;;;22.67;11.82;;;;;;;1.24;69.63;98256.94;5136897;27;20039;-63
2022/12/19 02:12:46;;;;;;;23.13;12.95;;;;;;;1.17;70.09;98262.75;5136860;27;20050;-63
2022/12/19 02:15:16;;;;;;;25.48;12.90;;;;;;;1.21;69.88;98260.28;5136783;27;20051;-61
2022/12/19 02:17:57;;;;;;;26.40;13.40;;;;;;;1.18;70.54;98264.50;5136772;27;20100;-61
2022/12/19 02:21:15;;;;;;;25.15;13.43;;;;;;;1.16;70.20;98267.03;5136885;27;20152;-60
2022/12/19 02:24:10;;;;;;;24.23;13.52;;;;;;;1.12;70.65;98260.91;5093619;28;20044;-62
2022/12/19 02:27:22;;;;;;;25.52;12.57;;;;;;;1.11;70.68;98259.16;5093625;28;20482;-62
2022/12/19 02:30:09;;;;;;;22.60;13.38;;;;;;;1.13;71.00;98252.34;5136508;27;20043;-60
2022/12/19 02:32:45;;;;;;;23.23;12.68;;;;;;;1.11;70.54;98258.28;5136425;27;20061;-60
2022/12/19 02:35:23;;;;;;;28.55;14.23;;;;;;;1.09;71.10;98260.81;5136305;27;20043;-60
2022/12/19 02:37:55;;;;;;;23.90;13.60;;;;;;;1.09;71.07;98257.38;5136457;27;20050;-62
2022/12/19 02:40:27;;;;;;;24.63;12.95;;;;;;;1.09;71.50;98263.38;5136297;27;20130;-63
2022/12/19 02:42:59;;;;;;;24.52;12.82;;;;;;;1.08;70.74;98263.38;5136306;27;20047;-61
2022/12/19 02:45:30;;;;;;;25.98;13.57;;;;;;;1.00;71.62;98265.72;5136205;27;20500;-64
2022/12/19 02:47:59;;;;;;;29.40;15.32;;;;;;;1.03;71.46;98264.94;5135730;27;20089;-61
2022/12/19 02:50:35;;;;;;;22.77;13.53;;;;;;;1.02;70.33;98264.06;5136179;27;20053;-63
2022/12/19 02:53:02;;;;;;;24.85;14.00;;;;;;;0.97;71.44;98266.50;5136038;27;20481;-60
2022/12/19 02:55:33;;;;;;;22.48;13.48;;;;;;;1.02;71.16;98274.38;5135949;27;20130;-62
2022/12/19 02:58:24;;;;;;;23.48;13.00;;;;;;;1.03;71.38;98273.56;5135996;27;20047;-61
2022/12/19 03:00:59;;;;;;;23.48;14.07;;;;;;;1.03;71.20;98278.72;5135372;27;20077;-62
2022/12/19 03:03:38;;;;;;;22.17;12.82;;;;;;;1.03;72.08;98278.72;5135866;27;20433;-62
2022/12/19 03:06:25;;;;;;;23.83;13.63;;;;;;;1.09;71.45;98289.16;5135755;27;20734;-62
2022/12/19 03:08:57;;;;;;;24.17;14.27;;;;;;;1.06;71.80;98283.97;5135605;27;20155;-64
2022/12/19 03:11:28;;;;;;;23.08;14.20;;;;;;;1.08;71.48;98284.00;5135690;27;20075;-63
2022/12/19 03:14:00;;;;;;;27.02;13.35;;;;;;;1.14;71.27;98291.88;5135662;27;20126;-64
2022/12/19 03:16:27;;;;;;;25.30;14.15;;;;;;;1.14;71.43;98284.16;5135686;27;20071;-61
2022/12/19 03:18:57;;;;;;;30.08;14.02;;;;;;;1.18;71.16;98293.75;5135513;27;20094;-63
2022/12/19 03:21:29;;;;;;;22.25;13.90;;;;;;;1.11;71.52;98278.91;5135477;27;20066;-60
2022/12/19 03:23:58;;;;;;;19.83;12.27;;;;;;;1.20;70.45;98292.06;5135547;27;20134;-62
2022/12/19 03:26:29;;;;;;;25.63;13.43;;;;;;;1.24;70.13;98291.28;5135525;27;20100;-61
2022/12/19 03:29:02;;;;;;;25.35;13.48;;;;;;;1.18;70.60;98288.59;5135448;27;20039;-65
2022/12/19 03:31:31;;;;;;;23.83;12.95;;;;;;;1.21;70.55;98292.94;5135340;27;20051;-64
2022/12/19 03:34:03;;;;;;;22.45;12.77;;;;;;;1.24;70.52;98296.47;5135193;27;20119;-60
2022/12/19 03:36:34;;;;;;;21.40;13.30;;;;;;;1.29;71.12;98294.00;5135420;27;20567;-59
2022/12/19 03:39:04;;;;;;;23.42;13.57;;;;;;;1.32;70.99;98294.09;5135340;27;20104;-63
2022/12/19 03:44:20;;;;;;;23.35;13.60;;;;;;;1.46;71.87;98302.22;5135158;27;20050;-66
2022/12/19 03:46:58;;;;;;;21.58;13.05;;;;;;;1.56;71.39;98305.91;5134972;27;20096;-63
2022/12/19 03:49:27;;;;;;;24.08;13.82;;;;;;;1.61;71.74;98311.19;5135076;27;20043;-64
2022/12/19 03:52:01;;;;;;;24.55;12.50;;;;;;;1.64;71.87;98304.41;5134795;27;20078;-64
2022/12/19 03:54:31;;;;;;;23.70;13.93;;;;;;;1.59;71.15;98302.50;5134875;27;20047;-62
2022/12/19 03:57:06;;;;;;;22.50;13.05;;;;;;;1.66;71.10;98313.88;5134874;27;20134;-63
2022/12/19 03:59:40;;;;;;;22.08;13.15;;;;;;;1.72;70.82;98311.47;5134188;27;20065;-64
2022/12/19 04:02:09;;;;;;;20.40;11.90;;;;;;;1.74;69.61;98313.25;5134757;27;20047;-62
2022/12/19 04:04:42;;;;;;;23.23;12.52;;;;;;;1.69;69.83;98314.84;5134675;27;20480;-63
2022/12/19 04:07:10;;;;;;;22.17;12.95;;;;;;;1.66;69.55;98312.19;5134555;27;20129;-63
2022/12/19 04:09:39;;;;;;;20.52;12.35;;;;;;;1.68;69.90;98315.66;5134553;27;20423;-64
2022/12/19 04:12:11;;;;;;;22.85;13.50;;;;;;;1.69;69.94;98314.84;5134554;27;20078;-63
2022/12/19 04:14:39;;;;;;;22.13;13.00;;;;;;;1.67;69.30;98311.34;5134548;27;20458;-62
2022/12/19 04:17:15;;;;;;;20.35;12.50;;;;;;;1.74;69.38;98321.00;5134423;27;20228;-63
2022/12/19 04:19:49;;;;;;;25.10;13.48;;;;;;;1.79;70.41;98307.31;5134528;27;20450;-63
2022/12/19 04:22:21;;;;;;;24.10;13.00;;;;;;;1.76;70.31;98310.72;5134281;27;20047;-63
2022/12/19 04:24:51;;;;;;;22.80;12.98;;;;;;;1.85;70.62;98318.69;5134296;27;20381;-61
2022/12/19 04:27:20;;;;;;;25.23;13.20;;;;;;;1.86;69.53;98317.84;5134314;27;20088;-62
2022/12/19 04:29:51;;;;;;;19.42;11.63;;;;;;;1.92;70.96;98311.97;5134213;27;20078;-61
2022/12/19 04:32:20;;;;;;;19.95;11.68;;;;;;;1.95;70.55;98313.75;5134214;27;20047;-63
2022/12/19 04:34:48;;;;;;;21.30;12.48;;;;;;;1.84;68.80;98318.66;5134266;27;20047;-64
2022/12/19 04:37:15;;;;;;;19.50;11.77;;;;;;;1.84;70.35;98326.41;5134138;27;20043;-64
2022/12/19 04:39:43;;;;;;;24.38;13.50;;;;;;;1.84;69.35;98335.00;5134116;27;20051;-64
2022/12/19 04:42:10;;;;;;;21.60;13.02;;;;;;;1.84;69.01;98339.31;5133975;27;20057;-62
2022/12/19 04:44:37;;;;;;;18.20;11.50;;;;;;;1.94;69.44;98341.28;5134186;27;20043;-64
2022/12/19 04:47:05;;;;;;;22.95;12.50;;;;;;;1.96;70.42;98338.75;5134043;27;20126;-62
2022/12/19 04:49:32;;;;;;;19.45;12.43;;;;;;;2.01;69.64;98335.44;5133929;27;20039;-64
2022/12/19 04:52:01;;;;;;;20.92;11.90;;;;;;;2.01;68.99;98337.13;5133884;28;20058;-62
2022/12/19 04:54:28;;;;;;;18.85;11.90;;;;;;;2.02;69.03;98344.06;5133843;28;20061;-62
2022/12/19 04:56:55;;;;;;;22.27;12.13;;;;;;;1.97;68.81;98346.53;5134234;28;20050;-64
2022/12/19 04:59:23;;;;;;;25.92;13.30;;;;;;;1.86;68.48;98353.09;5134002;28;20047;-62
2022/12/19 05:01:50;;;;;;;21.77;12.15;;;;;;;1.83;68.96;98353.03;5133780;28;20091;-63
2022/12/19 05:04:18;;;;;;;21.95;12.10;;;;;;;1.76;69.36;98358.06;5133839;28;20417;-65
2022/12/19 05:06:45;;;;;;;23.60;13.32;;;;;;;1.77;69.09;98364.06;5133862;28;20052;-65
2022/12/19 05:09:13;;;;;;;21.40;12.82;;;;;;;1.61;69.85;98366.25;5133718;28;20134;-63
2022/12/19 05:11:41;;;;;;;20.77;12.60;;;;;;;1.62;70.15;98365.41;5135805;27;20396;-62
2022/12/19 05:14:07;;;;;;;21.70;12.70;;;;;;;1.62;70.33;98364.53;5137974;27;20082;-62
2022/12/19 05:16:35;;;;;;;22.27;12.82;;;;;;;1.61;70.65;98363.69;5137869;27;20400;-63
2022/12/19 05:19:02;;;;;;;21.50;12.70;;;;;;;1.61;70.40;98370.53;5137796;27;20105;-63
2022/12/19 05:21:29;;;;;;;24.58;13.02;;;;;;;1.55;69.96;98366.09;5137720;27;20545;-61
2022/12/19 05:23:57;;;;;;;21.67;12.80;;;;;;;1.48;70.52;98370.19;5137731;27;20058;-64
2022/12/19 05:26:26;;;;;;;26.52;12.85;;;;;;;1.58;69.93;98368.75;5137670;27;20082;-61
2022/12/19 05:28:54;;;;;;;23.63;12.52;;;;;;;1.56;69.77;98372.97;5137689;27;20054;-63
2022/12/19 05:31:22;;;;;;;22.38;12.32;;;;;;;1.55;70.21;98368.66;5137828;27;20043;-64
2022/12/19 05:33:49;;;;;;;21.73;12.82;;;;;;;1.62;71.24;98372.28;5137533;27;20039;-65
2022/12/19 05:36:21;;;;;;;19.42;12.05;;;;;;;1.67;70.99;98378.44;5137500;27;20454;-65
2022/12/19 05:38:48;;;;;;;21.45;12.82;;;;;;;1.71;70.11;98385.44;5137482;27;20051;-65
2022/12/19 05:41:17;;;;;;;20.45;12.65;;;;;;;1.75;70.03;98382.09;5137359;27;20549;-63
2022/12/19 05:43:50;;;;;;;21.90;10.90;;;;;;;1.69;70.22;98393.97;5137145;27;20047;-63
2022/12/19 05:46:18;;;;;;;20.67;12.43;;;;;;;1.70;69.96;98393.13;5137277;27;20570;-63
2022/12/19 05:48:47;;;;;;;19.88;11.90;;;;;;;1.60;68.72;98402.34;5137296;27;20049;-63
2022/12/19 05:51:14;;;;;;;22.55;12.63;;;;;;;1.56;68.93;98406.53;5137395;27;20055;-61
2022/12/19 05:53:42;;;;;;;23.65;12.43;;;;;;;1.58;68.92;98402.28;5137322;27;20047;-66
2022/12/19 05:56:12;;;;;;;24.00;12.48;;;;;;;1.62;68.92;98401.53;5137187;27;20043;-60
2022/12/19 05:58:40;;;;;;;26.15;13.50;;;;;;;1.65;69.11;98408.47;5136933;27;20039;-64
2022/12/19 06:01:11;;;;;;;20.30;11.75;;;;;;;1.64;68.93;98406.75;5136964;27;20555;-63
2022/12/19 06:03:38;;;;;;;;;;;;;;;1.64;69.53;98405.03;5137669;27;20059;-60
2022/12/19 06:06:08;;;;;;;18.83;11.32;;;;;;;1.59;69.25;98416.94;5136894;27;19919;-62
2022/12/19 06:08:35;;;;;;;17.55;9.80;;;;;;;1.54;68.68;98415.06;5136868;27;20413;-61
2022/12/19 06:11:04;;;;;;;26.08;11.57;;;;;;;1.57;69.18;98421.19;5136828;27;20070;-62
2022/12/19 06:13:32;;;;;;;20.75;12.27;;;;;;;1.56;70.11;98428.88;5136835;27;20051;-63
2022/12/19 06:16:00;;;;;;;20.17;11.88;;;;;;;1.64;68.24;98438.59;5136662;27;20070;-64
2022/12/19 06:18:30;;;;;;;22.38;11.30;;;;;;;1.62;68.54;98426.47;5136679;27;20051;-61
2022/12/19 06:20:59;;;;;;;24.90;12.27;;;;;;;1.55;68.54;98435.75;5136969;27;20109;-61
2022/12/19 06:23:28;;;;;;;22.63;11.65;;;;;;;1.55;68.61;98435.75;5135731;27;20039;-63
2022/12/19 06:25:57;;;;;;;19.27;11.27;;;;;;;1.51;68.83;98428.75;5136591;27;20454;-62
2022/12/19 06:28:24;;;;;;;20.13;12.15;;;;;;;1.59;68.69;98434.09;5136487;27;20135;-63
2022/12/19 06:30:52;;;;;;;19.15;11.15;;;;;;;1.63;68.32;98436.81;5136425;27;20412;-63
2022/12/19 06:33:20;;;;;;;20.33;10.55;;;;;;;1.69;68.32;98454.22;5136385;27;20043;-61
2022/12/19 06:35:49;;;;;;;18.23;10.65;;;;;;;1.71;67.83;98455.09;5136405;27;20104;-62
2022/12/19 06:38:16;;;;;;;19.13;10.70;;;;;;;1.76;67.65;98469.03;5136453;27;20047;-63
2022/12/19 06:43:29;;;;;;;18.40;10.90;;;;;;;1.71;67.40;98465.44;5136160;27;20054;-63
2022/12/19 06:45:58;;;;;;;19.20;10.25;;;;;;;1.59;66.14;98475.38;5136201;27;20051;-64
2022/12/19 06:48:26;;;;;;;17.83;9.80;;;;;;;1.60;66.42;98480.59;5136228;27;20126;-64
2022/12/19 06:50:55;;;;;;;20.25;10.15;;;;;;;1.60;66.54;98478.00;5136075;27;20051;-62
2022/12/19 06:53:22;;;;;;;17.02;9.35;;;;;;;1.54;65.80;98485.59;5135997;27;20053;-64
2022/12/19 06:55:52;;;;;;;15.85;9.00;;;;;;;1.55;65.53;98489.03;5136001;27;20055;-63
2022/12/19 06:58:19;;;;;;;14.43;8.73;;;;;;;1.55;66.72;98483.88;5136008;27;20515;-62
2022/12/19 07:00:48;;;;;;;18.80;9.60;;;;;;;1.59;66.69;98493.44;5136068;27;20126;-64
2022/12/19 07:03:20;;;;;;;15.55;8.30;;;;;;;1.57;65.49;98492.56;5135764;27;20484;-63
2022/12/19 07:05:49;;;;;;;19.50;9.85;;;;;;;1.57;66.00;98495.13;5135858;27;20129;-62
2022/12/19 07:08:18;;;;;;;14.18;8.50;;;;;;;1.48;64.73;98499.19;5135680;27;20073;-62
2022/12/19 07:10:46;;;;;;;13.10;7.32;;;;;;;1.51;65.54;98501.00;5135915;27;20083;-62
2022/12/19 07:13:14;;;;;;;15.00;9.82;;;;;;;1.50;64.80;98506.97;5135638;27;20054;-62
2022/12/19 07:15:41;;;;;;;16.80;8.88;;;;;;;1.54;64.59;98506.25;5135545;27;20477;-64
2022/12/19 07:18:10;;;;;;;15.93;9.32;;;;;;;1.55;64.13;98502.84;5135462;27;20076;-63
2022/12/19 07:20:41;;;;;;;19.08;9.85;;;;;;;1.59;65.18;98502.09;5135614;27;20417;-60
2022/12/19 07:23:10;;;;;;;18.63;9.82;;;;;;;1.69;65.40;98505.81;5135355;27;20280;-62
2022/12/19 07:25:39;;;;;;;19.17;9.98;;;;;;;1.74;64.94;98501.66;5135431;27;20489;-61
2022/12/19 07:28:09;;;;;;;19.25;10.25;;;;;;;1.80;65.71;98506.13;5135435;27;20127;-65
2022/12/19 07:30:36;;;;;;;17.42;9.40;;;;;;;1.71;64.17;98501.56;5135257;27;20047;-62
2022/12/19 07:33:04;;;;;;;16.95;9.93;;;;;;;1.74;64.43;98499.06;5135306;27;20043;-61
2022/12/19 07:35:32;;;;;;;15.45;9.35;;;;;;;1.83;64.72;98503.63;5134163;27;20055;-63
2022/12/19 07:38:03;;;;;;;16.27;9.05;;;;;;;1.89;63.27;98514.13;5135055;27;20047;-65
2022/12/19 07:40:32;;;;;;;18.95;9.77;;;;;;;1.84;62.58;98517.41;5134986;27;20054;-61
2022/12/19 07:43:04;;;;;;;14.85;8.82;;;;;;;1.85;63.65;98514.00;5134661;27;20087;-61
2022/12/19 07:45:33;;;;;;;14.57;8.82;;;;;;;1.80;62.88;98511.28;5134961;27;20496;-60
2022/12/19 07:48:02;;;;;;;14.10;7.55;;;;;;;1.84;62.29;98515.69;5134971;27;20411;-65
2022/12/19 07:50:30;;;;;;;12.57;8.32;;;;;;;1.83;62.62;98524.28;5134791;27;20104;-65
2022/12/19 07:52:58;;;;;;;16.92;9.20;;;;;;;1.86;63.54;98520.91;5134834;27;20051;-63
2022/12/19 07:55:26;;;;;;;15.13;9.30;;;;;;;1.88;62.30;98532.16;5134857;27;20071;-62
2022/12/19 07:57:54;;;;;;;16.55;8.88;;;;;;;1.81;62.54;98523.38;5134780;27;20404;-65
2022/12/19 08:00:23;;;;;;;15.60;9.23;;;;;;;1.82;63.61;98532.84;5134813;27;20175;-64
2022/12/19 08:02:50;;;;;;;21.30;13.05;;;;;;;1.84;62.45;98532.91;5134873;27;20212;-63
2022/12/19 08:05:20;;;;;;;13.73;8.35;;;;;;;1.84;62.56;98533.75;5134613;27;20126;-63
2022/12/19 08:07:54;;;;;;;15.50;8.73;;;;;;;1.91;63.51;98534.81;5134509;27;20416;-62
2022/12/19 08:10:30;;;;;;;14.57;8.57;;;;;;;1.92;62.52;98538.28;5134474;27;20043;-63
2022/12/19 08:13:07;;;;;;;16.63;9.13;;;;;;;1.98;62.58;98548.78;5134346;27;20488;-61
2022/12/19 08:15:44;;;;;;;15.43;9.10;;;;;;;2.05;63.07;98552.41;5134578;27;20051;-61
2022/12/19 08:18:17;;;;;;;20.48;9.15;;;;;;;2.05;61.86;98558.47;5134318;27;20082;-62
2022/12/19 08:20:47;;;;;;;16.13;9.18;;;;;;;2.06;61.71;98560.22;5134546;27;20088;-62
2022/12/19 08:23:15;;;;;;;14.15;8.80;;;;;;;2.18;61.67;98558.78;5134152;27;20054;-62
2022/12/19 08:25:43;;;;;;;13.75;8.30;;;;;;;2.21;62.22;98559.78;5134331;27;20039;-64
2022/12/19 08:28:10;;;;;;;17.10;9.52;;;;;;;2.25;61.62;98561.59;5134249;27;20083;-63
2022/12/19 08:30:40;;;;;;;15.45;8.57;;;;;;;2.37;62.17;98558.47;5134178;27;20051;-63
2022/12/19 08:33:08;;;;;;;14.38;8.35;;;;;;;2.37;59.74;98553.31;5134278;27;20099;-65
2022/12/19 08:35:37;;;;;;;13.43;8.43;;;;;;;2.41;60.11;98556.88;5134320;27;20070;-65
2022/12/19 08:38:05;;;;;;;14.77;8.75;;;;;;;2.44;60.17;98558.66;5134209;27;20083;-64
2022/12/19 08:40:34;;;;;;;14.98;8.18;;;;;;;2.47;59.92;98553.56;5134029;27;20051;-62
2022/12/19 08:43:02;;;;;;;13.27;8.10;;;;;;;2.62;60.87;98553.09;5133895;27;20556;-63
2022/12/19 08:45:29;;;;;;;13.93;8.05;;;;;;;2.74;59.56;98557.72;5133887;27;20104;-62
2022/12/19 08:47:58;;;;;;;17.05;8.38;;;;;;;2.66;57.37;98549.75;5134212;27;20054;-60
2022/12/19 08:50:25;;;;;;;14.85;7.28;;;;;;;2.62;55.26;98543.63;5133991;27;20132;-61
2022/12/19 08:52:53;;;;;;;13.20;7.60;;;;;;;2.67;55.87;98545.47;5133982;28;20039;-63
2022/12/19 08:55:20;;;;;;;13.90;7.22;;;;;;;2.78;56.56;98547.50;5134069;28;20047;-65
2022/12/19 08:57:48;;;;;;;12.77;7.20;;;;;;;2.88;57.34;98545.13;5133988;28;20043;-62
2022/12/19 09:00:16;;;;;;;12.25;7.45;;;;;;;3.06;57.42;98548.97;5133876;28;20100;-63
2022/12/19 09:02:46;;;;;;;12.55;7.43;;;;;;;3.20;55.71;98547.63;5133858;28;20461;-62
2022/12/19 09:05:20;;;;;;;12.50;6.85;;;;;;;3.27;54.23;98551.22;5133829;28;20039;-65
2022/12/19 09:07:48;;;;;;;10.55;6.18;;;;;;;3.22;56.09;98550.25;5133758;28;20049;-64
2022/12/19 09:10:15;;;;;;;12.52;7.32;;;;;;;3.21;56.69;98553.66;5133911;28;20043;-62
2022/12/19 09:12:43;;;;;;;12.48;7.28;;;;;;;3.13;57.55;98544.00;5133709;28;20070;-62
2022/12/19 09:15:13;;;;;;;15.63;8.02;;;;;;;3.09;59.90;98542.19;5133839;28;20064;-63
2022/12/19 09:17:40;;;;;;;9.25;6.38;;;;;;;3.12;58.52;98539.69;5133716;28;20163;-63
2022/12/19 09:20:09;;;;;;;12.32;7.35;;;;;;;2.98;57.83;98541.91;5133726;28;20044;-62
2022/12/19 09:22:38;;;;;;;11.98;7.75;;;;;;;3.01;59.66;98542.00;5133944;28;20107;-60
2022/12/19 09:25:06;;;;;;;14.93;7.80;;;;;;;3.10;60.21;98540.47;5133643;28;20090;-63
2022/12/19 09:27:34;;;;;;;17.20;7.22;;;;;;;3.11;58.86;98532.75;5133829;28;20104;-62
2022/12/19 09:30:04;;;;;;;14.48;7.93;;;;;;;3.01;58.56;98529.06;5133946;28;20047;-63
2022/12/19 09:32:32;;;;;;;12.48;7.53;;;;;;;2.94;58.80;98536.63;5133731;28;20051;-62
2022/12/19 09:35:00;;;;;;;11.85;7.88;;;;;;;2.98;59.93;98531.56;5133530;28;20047;-61
2022/12/19 09:37:27;;;;;;;13.60;7.88;;;;;;;3.04;58.16;98525.66;5133610;28;20051;-61
2022/12/19 09:39:56;;;;;;;11.25;6.88;;;;;;;3.03;58.56;98519.63;5133573;28;20484;-62
2022/12/19 09:42:47;;;;;;;11.68;7.20;;;;;;;3.12;58.06;98516.41;5133259;28;20488;-63
2022/12/19 09:45:27;;;;;;;13.52;7.30;;;;;;;2.99;59.41;98520.41;5133481;28;20047;-63
2022/12/19 09:47:58;;;;;;;12.88;7.05;;;;;;;2.81;59.77;98525.13;5133364;28;20556;-62
2022/12/19 09:50:30;;;;;;;;;;;;;;;2.81;60.07;98517.34;5133931;28;20051;-63
2022/12/19 09:53:02;;;;;;;13.90;7.60;;;;;;;2.69;61.00;98520.50;5133462;28;19929;-60
2022/12/19 09:55:34;;;;;;;11.77;6.35;;;;;;;2.76;60.27;98504.31;5133392;28;20047;-63
2022/12/19 09:58:08;;;;;;;13.00;7.10;;;;;;;2.81;60.63;98502.72;5134138;27;20047;-62
2022/12/19 10:00:41;;;;;;;13.45;7.35;;;;;;;2.94;61.39;98501.31;5137313;27;20401;-64
2022/12/19 10:03:18;;;;;;;13.10;7.90;;;;;;;3.06;63.03;98505.00;5137126;27;20107;-62
2022/12/19 10:05:50;;;;;;;14.40;7.80;;;;;;;3.08;62.16;98499.06;5137060;27;20052;-65
2022/12/19 10:08:19;;;;;;;12.70;7.00;;;;;;;3.08;59.69;98500.75;5137083;27;20152;-63
2022/12/19 10:11:00;;;;;;;11.77;6.80;;;;;;;3.08;59.08;98495.59;5136936;27;20078;-62
2022/12/19 10:13:40;;;;;;;15.30;7.35;;;;;;;2.97;59.93;98479.81;5136782;27;20516;-63
2022/12/19 10:16:16;;;;;;;8.00;5.05;;;;;;;2.92;60.93;98495.22;5136958;27;20382;-65
2022/12/19 10:18:52;;;;;;;10.52;6.35;;;;;;;2.98;61.29;98484.16;5136733;27;20051;-65
2022/12/19 10:21:29;;;;;;;18.77;7.95;;;;;;;3.10;60.97;98486.16;5136651;27;20211;-65
2022/12/19 10:24:15;;;;;;;11.60;6.63;;;;;;;3.09;58.41;98492.16;5136580;27;20138;-62
2022/12/19 10:26:51;;;;;;;11.48;6.55;;;;;;;2.90;58.72;98484.88;5136566;27;20043;-60
2022/12/19 10:29:51;;;;;;;15.35;7.13;;;;;;;2.91;58.65;98485.72;5136605;27;20048;-62
2022/12/19 10:32:26;;;;;;;13.00;6.88;;;;;;;2.82;59.41;98488.97;5119251;27;20138;-62
2022/12/19 10:34:54;;;;;;;14.18;7.20;;;;;;;2.92;57.66;98484.03;5136439;27;20133;-63
2022/12/19 10:37:25;;;;;;;12.00;5.95;;;;;;;2.94;57.59;98478.03;5136612;27;20501;-62
2022/12/19 10:40:03;;;;;;;10.45;5.25;;;;;;;3.00;58.46;98480.78;5136260;27;20039;-63
2022/12/19 10:42:46;;;;;;;11.98;5.60;;;;;;;3.01;59.00;98479.94;5135956;27;20621;-61
2022/12/19 10:45:17;;;;;;;11.05;5.68;;;;;;;3.08;55.50;98474.91;5136199;27;20454;-61
2022/12/19 10:47:46;;;;;;;9.00;5.07;;;;;;;3.11;54.39;98470.69;5136156;27;20043;-62
2022/12/19 10:50:17;;;;;;;10.25;5.47;;;;;;;3.15;55.23;98451.81;5136053;27;20057;-63
2022/12/19 10:52:52;;;;;;;10.55;6.07;;;;;;;3.23;54.95;98456.28;5136051;27;20078;-64
2022/12/19 10:55:39;;;;;;;10.02;5.40;;;;;;;3.12;55.89;98454.31;5136037;27;20046;-64
2022/12/19 10:58:24;;;;;;;11.02;5.88;;;;;;;3.19;55.56;98447.56;5136083;27;20393;-61
2022/12/19 11:01:10;;;;;;;11.43;6.25;;;;;;;3.34;54.93;98452.19;5133967;27;20055;-63
2022/12/19 11:03:39;;;;;;;12.40;6.45;;;;;;;3.28;55.56;98446.88;5135841;27;20047;-63
2022/12/19 11:06:07;;;;;;;10.88;5.53;;;;;;;3.35;54.54;98453.97;5135818;27;20047;-61
2022/12/19 11:08:35;;;;;;;10.55;5.80;;;;;;;3.21;53.98;98451.06;5135756;27;20039;-61
2022/12/19 11:11:12;;;;;;;10.35;5.60;;;;;;;3.25;54.33;98446.84;5135686;27;20134;-61
2022/12/19 11:13:43;;;;;;;10.73;6.38;;;;;;;3.34;55.80;98446.16;5135737;27;20450;-65
2022/12/19 11:16:12;;;;;;;12.10;7.22;;;;;;;3.41;56.29;98437.69;5135789;27;20043;-60
2022/12/19 11:18:41;;;;;;;10.20;5.97;;;;;;;3.56;55.12;98444.00;5135514;27;20050;-62
2022/12/19 11:21:17;;;;;;;11.23;6.45;;;;;;;3.66;55.45;98443.38;5135518;27;20129;-62
2022/12/19 11:23:51;;;;;;;12.07;6.38;;;;;;;3.74;54.52;98440.94;5135562;27;20129;-62
2022/12/19 11:26:35;;;;;;;12.23;7.00;;;;;;;3.58;54.13;98450.09;5135523;27;20051;-65
2022/12/19 11:29:18;;;;;;;12.50;6.80;;;;;;;3.43;53.22;98443.75;5135422;27;20054;-62
2022/12/19 11:31:47;;;;;;;12.63;6.40;;;;;;;3.26;55.31;98433.94;5135617;27;20047;-60
2022/12/19 11:34:15;;;;;;;10.63;6.32;;;;;;;3.38;55.16;98438.50;5135273;27;20476;-62
2022/12/19 11:36:49;;;;;;;9.50;5.55;;;;;;;3.45;54.29;98449.84;5135351;27;20054;-64
2022/12/19 11:39:22;;;;;;;11.90;6.47;;;;;;;3.34;54.05;98443.56;5135240;27;20047;-62
2022/12/19 11:42:03;;;;;;;11.50;6.00;;;;;;;3.43;53.31;98453.25;5134938;27;20039;-64
2022/12/19 11:44:35;;;;;;;;;;;;;;;3.11;54.34;98436.19;5135755;27;20412;-62
2022/12/19 11:47:12;;;;;;;12.57;7.10;;;;;;;3.01;55.48;98440.28;5135081;27;19923;-64
2022/12/19 11:49:46;;;;;;;13.20;6.47;;;;;;;2.92;55.07;98451.25;5134948;27;20051;-64
2022/12/19 11:52:20;;;;;;;20.00;7.40;;;;;;;2.84;56.41;98443.34;5135099;27;20069;-61